Time;durP1;ratioP1;P1;durP2;ratioP2;P2;SDS_P1;SDS_P2;PMS_P1;PMS_P2;Temp;Humidity;BMP_temperature;BMP_pressure;BME280_temperature;BME280_humidity;BME280_pressure;Samples;Min_cycle;Max_cycle;Signal;HPM_P1;HPM_P2
2023/07/31 00:00:11;;;;;;;2.83;2.38;;;24.60;66.80;;;;;;6112123;28;81040;-56
2023/07/31 00:03:11;;;;;;;5.38;2.42;;;24.60;66.50;;;;;;6096819;28;82405;-58
2023/07/31 00:06:12;;;;;;;3.47;2.30;;;24.60;66.30;;;;;;6116919;28;80402;-65
2023/07/31 00:09:12;;;;;;;2.85;2.20;;;24.60;66.10;;;;;;6113334;28;81642;-66
2023/07/31 00:12:13;;;;;;;2.42;2.20;;;24.50;66.10;;;;;;6105414;28;82158;-67
2023/07/31 00:15:13;;;;;;;4.78;2.55;;;24.50;66.20;;;;;;6130272;28;80432;-66
2023/07/31 00:18:14;;;;;;;3.55;2.33;;;24.40;66.60;;;;;;6110397;28;82375;-64
2023/07/31 00:21:14;;;;;;;6.82;2.47;;;24.40;66.70;;;;;;6112872;28;80624;-64
2023/07/31 00:24:15;;;;;;;7.28;2.28;;;24.40;66.80;;;;;;6112500;28;81182;-63
2023/07/31 00:27:15;;;;;;;2.95;2.50;;;24.50;67.00;;;;;;6113912;28;81007;-65
2023/07/31 00:30:16;;;;;;;3.53;2.17;;;24.40;67.00;;;;;;6120913;28;82569;-66
2023/07/31 00:33:16;;;;;;;3.63;2.42;;;24.40;66.90;;;;;;6106805;28;82719;-65
2023/07/31 00:36:17;;;;;;;2.20;1.90;;;24.50;66.90;;;;;;6119571;28;81101;-62
2023/07/31 00:39:18;;;;;;;3.50;2.20;;;24.40;66.90;;;;;;6106220;28;80436;-65
2023/07/31 00:42:19;;;;;;;3.30;2.10;;;24.50;67.00;;;;;;6125636;28;81647;-63
2023/07/31 00:45:22;;;;;;;3.30;2.38;;;24.60;66.70;;;;;;6104182;28;80895;-62
2023/07/31 00:48:23;;;;;;;3.28;2.47;;;24.60;66.80;;;;;;6112313;28;80603;-61
2023/07/31 00:51:23;;;;;;;2.65;1.90;;;24.60;66.50;;;;;;6118810;28;80712;-62
2023/07/31 00:54:24;;;;;;;3.97;1.85;;;24.30;66.90;;;;;;6117319;28;83369;-61
2023/07/31 00:57:25;;;;;;;3.70;2.10;;;24.20;67.70;;;;;;6157463;28;82332;-62
2023/07/31 01:00:25;;;;;;;4.20;2.70;;;24.20;67.60;;;;;;6118311;28;80342;-66
2023/07/31 01:03:26;;;;;;;4.13;2.05;;;24.20;67.70;;;;;;6125062;28;82264;-66
2023/07/31 01:06:26;;;;;;;4.63;2.03;;;24.10;67.80;;;;;;6107838;28;82470;-67
2023/07/31 01:09:27;;;;;;;4.35;2.50;;;24.20;67.90;;;;;;6116465;28;80537;-67
2023/07/31 01:12:29;;;;;;;2.78;1.90;;;24.30;68.00;;;;;;6105982;28;81961;-67
2023/07/31 01:15:29;;;;;;;3.30;2.35;;;24.30;67.90;;;;;;6104686;28;82369;-67
2023/07/31 01:18:30;;;;;;;4.95;2.20;;;24.30;67.80;;;;;;6115929;28;80490;-61
2023/07/31 01:21:31;;;;;;;2.85;2.28;;;24.20;67.90;;;;;;6097850;28;85332;-60
2023/07/31 01:24:31;;;;;;;2.97;2.08;;;24.20;67.80;;;;;;6107328;28;82198;-61
2023/07/31 01:27:32;;;;;;;6.63;2.17;;;24.30;68.00;;;;;;6105183;28;82416;-59
2023/07/31 01:30:35;;;;;;;3.85;2.28;;;24.30;67.80;;;;;;6126253;28;80580;-61
2023/07/31 01:33:36;;;;;;;2.78;2.42;;;24.30;67.60;;;;;;6126125;28;83023;-61
2023/07/31 01:36:36;;;;;;;2.83;2.33;;;24.40;68.00;;;;;;6117062;28;81074;-54
2023/07/31 01:39:37;;;;;;;3.25;2.30;;;24.40;67.50;;;;;;6128323;28;79961;-55
2023/07/31 01:42:37;;;;;;;2.78;2.00;;;24.40;67.60;;;;;;6116350;28;83678;-53
2023/07/31 01:45:38;;;;;;;4.45;2.58;;;24.40;67.90;;;;;;6126406;28;81723;-55
2023/07/31 01:48:38;;;;;;;4.65;2.40;;;24.30;67.90;;;;;;6115548;28;82397;-57
2023/07/31 01:51:39;;;;;;;3.10;1.83;;;24.10;68.10;;;;;;6120613;28;80868;-54
2023/07/31 01:54:41;;;;;;;5.78;2.50;;;24.10;69.00;;;;;;6126894;28;81892;-66
2023/07/31 01:57:42;;;;;;;3.20;2.42;;;24.00;69.30;;;;;;6116576;28;80437;-65
2023/07/31 02:00:43;;;;;;;3.97;2.40;;;24.00;69.60;;;;;;6117175;28;81832;-65
2023/07/31 02:03:43;;;;;;;3.90;2.58;;;24.00;69.70;;;;;;6101774;28;80508;-67
2023/07/31 02:06:44;;;;;;;3.88;2.42;;;24.00;69.70;;;;;;6110945;28;80437;-67
2023/07/31 02:09:44;;;;;;;2.53;2.15;;;24.10;69.50;;;;;;6120397;28;83090;-68
2023/07/31 02:12:45;;;;;;;5.00;2.65;;;24.20;69.50;;;;;;6129893;28;83309;-61
2023/07/31 02:15:45;;;;;;;3.63;2.55;;;24.30;69.30;;;;;;6129558;28;81597;-61
2023/07/31 02:18:46;;;;;;;5.30;2.00;;;24.30;69.00;;;;;;6119417;28;82744;-61
2023/07/31 02:21:47;;;;;;;3.25;2.30;;;24.30;68.90;;;;;;6128647;28;80302;-62
2023/07/31 02:24:47;;;;;;;6.32;2.65;;;24.40;68.80;;;;;;6118542;28;81574;-62
2023/07/31 02:27:48;;;;;;;3.30;2.50;;;24.40;68.90;;;;;;6128009;28;83044;-61
2023/07/31 02:30:49;;;;;;;4.75;2.50;;;24.30;69.00;;;;;;6117051;28;81995;-56
2023/07/31 02:33:50;;;;;;;6.03;2.45;;;24.30;69.20;;;;;;6114110;28;80454;-56
2023/07/31 02:36:50;;;;;;;3.92;2.53;;;24.30;69.50;;;;;;6118101;28;81691;-57
2023/07/31 02:39:52;;;;;;;6.10;2.40;;;24.30;69.70;;;;;;6097349;28;80583;-54
2023/07/31 02:42:53;;;;;;;7.55;3.15;;;24.30;69.80;;;;;;6117104;28;81203;-55
2023/07/31 02:45:54;;;;;;;2.78;2.13;;;24.20;69.80;;;;;;6099954;28;81761;-53
2023/07/31 02:48:54;;;;;;;2.83;2.40;;;24.10;70.00;;;;;;6112597;28;82957;-57
2023/07/31 02:51:55;;;;;;;2.42;2.00;;;24.30;70.20;;;;;;6118501;28;81679;-58
2023/07/31 02:54:56;;;;;;;3.63;2.40;;;24.20;70.10;;;;;;6105622;28;81586;-57
2023/07/31 02:57:58;;;;;;;4.80;2.30;;;24.30;70.30;;;;;;6109863;28;83315;-55
2023/07/31 03:00:58;;;;;;;4.60;2.30;;;24.30;70.00;;;;;;6104801;28;80562;-56
2023/07/31 03:03:59;;;;;;;2.25;2.05;;;24.40;69.90;;;;;;6113126;28;83140;-53
2023/07/31 03:07:00;;;;;;;5.63;2.72;;;24.30;69.80;;;;;;6096784;28;80427;-55
2023/07/31 03:10:01;;;;;;;2.70;1.92;;;24.30;69.90;;;;;;6106101;28;80736;-57
2023/07/31 03:13:02;;;;;;;2.35;2.05;;;24.40;70.00;;;;;;6108585;28;82673;-57
2023/07/31 03:16:03;;;;;;;3.63;2.20;;;24.30;69.90;;;;;;6133223;28;83236;-54
2023/07/31 03:19:04;;;;;;;3.13;2.17;;;24.30;70.10;;;;;;6129174;28;83202;-55
2023/07/31 03:22:04;;;;;;;6.85;2.63;;;24.30;69.70;;;;;;6097104;28;82530;-58
2023/07/31 03:25:05;;;;;;;3.95;2.40;;;24.40;69.60;;;;;;6106065;28;80886;-57
2023/07/31 03:28:05;;;;;;;4.47;2.05;;;24.40;69.20;;;;;;6107420;28;83137;-67
2023/07/31 03:31:08;;;;;;;2.70;2.08;;;24.40;69.40;;;;;;6124449;28;80651;-65
2023/07/31 03:34:08;;;;;;;4.30;2.55;;;24.40;69.40;;;;;;6125691;28;82768;-66
2023/07/31 03:37:09;;;;;;;3.60;2.30;;;24.40;68.80;;;;;;6139205;28;80401;-65
2023/07/31 03:40:10;;;;;;;3.35;2.15;;;24.40;68.60;;;;;;6149641;28;80792;-66
2023/07/31 03:43:10;;;;;;;4.05;2.00;;;24.50;68.50;;;;;;6120028;28;82561;-67
2023/07/31 03:46:12;;;;;;;2.95;2.10;;;24.50;68.30;;;;;;6146862;28;81539;-64
2023/07/31 03:49:12;;;;;;;3.55;2.63;;;24.40;68.00;;;;;;6101217;28;83314;-62
2023/07/31 03:52:13;;;;;;;4.32;2.67;;;24.40;68.30;;;;;;6119424;28;80179;-61
2023/07/31 03:55:13;;;;;;;5.10;2.53;;;24.40;68.00;;;;;;6096898;28;82703;-65
2023/07/31 03:58:14;;;;;;;5.07;2.50;;;24.40;68.00;;;;;;6110405;28;80542;-64
2023/07/31 04:01:14;;;;;;;3.83;2.40;;;24.50;68.00;;;;;;6111272;28;81358;-67
2023/07/31 04:04:15;;;;;;;4.60;2.55;;;24.40;67.90;;;;;;6102014;28;82721;-61
2023/07/31 04:07:15;;;;;;;6.28;2.50;;;24.50;67.90;;;;;;6119184;28;82427;-61
2023/07/31 04:10:16;;;;;;;3.50;2.25;;;24.40;67.90;;;;;;6119302;28;81674;-60
2023/07/31 04:13:16;;;;;;;3.17;2.47;;;24.40;68.20;;;;;;6127461;28;80600;-59
2023/07/31 04:16:17;;;;;;;4.47;2.25;;;24.40;68.10;;;;;;6107442;28;80389;-61
2023/07/31 04:19:17;;;;;;;3.88;2.33;;;24.40;68.30;;;;;;6126958;28;80621;-61
2023/07/31 04:22:18;;;;;;;3.50;2.25;;;24.40;68.40;;;;;;6128503;28;80369;-62
2023/07/31 04:25:18;;;;;;;3.88;2.20;;;24.40;68.00;;;;;;6119026;28;81602;-61
2023/07/31 04:28:19;;;;;;;3.25;2.25;;;24.50;67.80;;;;;;6112868;28;81017;-59
2023/07/31 04:31:19;;;;;;;3.72;2.50;;;24.60;67.80;;;;;;6112747;28;81952;-60
2023/07/31 04:34:20;;;;;;;3.28;2.05;;;24.50;67.90;;;;;;6108000;28;80559;-63
2023/07/31 04:37:20;;;;;;;3.65;2.50;;;24.60;67.60;;;;;;6101833;28;82354;-64
2023/07/31 04:40:21;;;;;;;7.97;2.30;;;24.60;67.60;;;;;;6122697;28;83580;-63
2023/07/31 04:43:22;;;;;;;10.32;2.53;;;24.60;67.90;;;;;;6125749;28;80424;-61
2023/07/31 04:46:22;;;;;;;4.15;2.40;;;24.70;67.80;;;;;;6117468;28;82689;-62
2023/07/31 04:49:23;;;;;;;3.97;2.10;;;24.80;67.70;;;;;;6126344;28;80682;-64
2023/07/31 04:52:23;;;;;;;3.03;2.33;;;24.70;67.50;;;;;;6118724;28;81698;-62
2023/07/31 04:55:24;;;;;;;4.00;2.90;;;24.60;67.70;;;;;;6121214;28;80350;-60
2023/07/31 04:58:24;;;;;;;3.10;2.20;;;24.70;67.50;;;;;;6096439;28;81879;-54
2023/07/31 05:01:25;;;;;;;7.82;2.75;;;24.70;67.30;;;;;;6100394;28;81527;-54
2023/07/31 05:04:25;;;;;;;5.70;2.33;;;24.70;67.40;;;;;;6101392;28;80741;-62
2023/07/31 05:07:26;;;;;;;6.70;2.50;;;24.70;67.40;;;;;;6088648;28;81284;-60
2023/07/31 05:10:26;;;;;;;7.38;2.65;;;24.80;68.00;;;;;;6115792;28;80789;-52
2023/07/31 05:13:27;;;;;;;4.72;2.28;;;24.80;66.90;;;;;;6110309;28;81564;-58
2023/07/31 05:16:27;;;;;;;4.60;2.70;;;24.80;67.00;;;;;;6117681;28;80420;-62
2023/07/31 05:19:28;;;;;;;4.80;2.67;;;24.80;66.70;;;;;;6110329;28;81364;-59
2023/07/31 05:22:28;;;;;;;3.17;2.70;;;24.80;66.40;;;;;;6114117;28;81584;-58
2023/07/31 05:25:29;;;;;;;6.32;3.22;;;24.70;66.40;;;;;;6120891;28;81574;-58
2023/07/31 05:28:29;;;;;;;5.35;2.53;;;24.80;66.50;;;;;;6115912;28;80511;-60
2023/07/31 05:31:32;;;;;;;5.32;2.70;;;24.90;66.70;;;;;;6121580;28;80619;-58
2023/07/31 05:34:32;;;;;;;4.88;3.08;;;24.90;66.60;;;;;;6114233;28;81799;-59
2023/07/31 05:37:33;;;;;;;5.10;3.13;;;24.90;66.30;;;;;;6120664;28;83724;-59
2023/07/31 05:40:33;;;;;;;4.97;3.40;;;24.90;66.10;;;;;;6114612;28;81345;-60
2023/07/31 05:43:34;;;;;;;4.40;3.33;;;24.90;66.10;;;;;;6110809;28;80582;-58
2023/07/31 05:46:34;;;;;;;6.13;4.03;;;25.00;66.10;;;;;;6116901;28;80988;-59
2023/07/31 05:49:35;;;;;;;6.28;3.97;;;25.00;65.80;;;;;;6099255;28;80340;-59
2023/07/31 05:52:35;;;;;;;6.38;4.32;;;25.10;65.70;;;;;;6118162;28;81504;-60
2023/07/31 05:55:36;;;;;;;6.05;4.20;;;25.10;65.40;;;;;;6120648;28;80430;-59
2023/07/31 05:58:36;;;;;;;4.40;3.90;;;25.10;65.50;;;;;;6129530;28;81526;-59
2023/07/31 06:01:37;;;;;;;8.00;3.90;;;25.10;65.20;;;;;;6129117;28;82408;-59
2023/07/31 06:04:37;;;;;;;4.68;4.20;;;25.20;65.30;;;;;;6127266;28;80391;-58
2023/07/31 06:07:38;;;;;;;8.77;5.00;;;25.20;65.10;;;;;;6117302;28;80431;-58
2023/07/31 06:10:38;;;;;;;7.30;4.68;;;25.20;64.90;;;;;;6120750;28;83070;-62
2023/07/31 06:13:39;;;;;;;7.75;5.70;;;25.20;64.80;;;;;;6126010;28;80951;-62
2023/07/31 06:16:39;;;;;;;10.15;4.85;;;25.20;65.10;;;;;;6099706;28;83242;-63
2023/07/31 06:19:40;;;;;;;8.95;5.18;;;25.20;65.00;;;;;;6119899;28;81379;-58
2023/07/31 06:22:40;;;;;;;9.95;4.93;;;25.20;64.60;;;;;;6098257;28;80799;-57
2023/07/31 06:25:41;;;;;;;10.07;5.30;;;25.20;64.60;;;;;;6118917;28;81821;-60
2023/07/31 06:28:41;;;;;;;9.73;4.25;;;25.20;64.70;;;;;;6117037;28;83443;-61
2023/07/31 06:31:42;;;;;;;7.90;5.13;;;25.20;64.70;;;;;;6096295;28;84004;-66
2023/07/31 06:34:42;;;;;;;11.43;5.38;;;25.10;64.20;;;;;;6146769;28;81297;-60
2023/07/31 06:37:44;;;;;;;6.18;4.65;;;25.00;64.40;;;;;;6092079;28;81799;-58
2023/07/31 06:40:44;;;;;;;10.98;4.78;;;25.00;64.50;;;;;;6126392;28;80359;-61
2023/07/31 06:43:45;;;;;;;6.97;5.05;;;25.00;64.40;;;;;;6119264;28;80545;-61
2023/07/31 06:46:45;;;;;;;12.63;5.03;;;25.00;64.50;;;;;;6124044;28;81207;-60
2023/07/31 06:49:46;;;;;;;12.75;4.70;;;25.00;64.50;;;;;;6121194;28;83991;-71
2023/07/31 06:52:46;;;;;;;6.47;3.80;;;24.90;64.80;;;;;;6122534;28;81305;-65
2023/07/31 06:55:48;;;;;;;4.72;3.92;;;24.90;65.00;;;;;;6129123;28;80282;-65
2023/07/31 06:58:48;;;;;;;15.73;4.38;;;24.90;65.00;;;;;;6110696;28;81935;-68
2023/07/31 07:01:49;;;;;;;7.20;4.10;;;25.00;65.10;;;;;;6133137;28;80330;-66
2023/07/31 07:04:49;;;;;;;5.70;3.40;;;25.00;65.00;;;;;;6108437;28;81713;-71
2023/07/31 07:07:51;;;;;;;5.68;3.80;;;25.10;65.20;;;;;;6115267;28;80770;-63
2023/07/31 07:10:52;;;;;;;7.30;3.60;;;25.10;65.20;;;;;;6125667;28;81478;-64
2023/07/31 07:13:52;;;;;;;6.40;4.10;;;25.10;65.30;;;;;;6114446;28;81638;-67
2023/07/31 07:16:53;;;;;;;9.95;3.58;;;25.10;65.00;;;;;;6121966;28;87394;-60
2023/07/31 07:19:53;;;;;;;6.10;3.78;;;25.10;64.90;;;;;;6117195;28;80968;-67
2023/07/31 07:22:54;;;;;;;83.15;24.25;;;25.10;64.90;;;;;;6137311;28;82378;-63
2023/07/31 07:25:54;;;;;;;83.72;23.50;;;25.10;64.60;;;;;;6118258;28;83235;-50
2023/07/31 07:28:55;;;;;;;62.00;17.02;;;25.10;64.40;;;;;;6120454;28;84760;-50
2023/07/31 07:31:55;;;;;;;50.55;14.10;;;25.10;64.10;;;;;;6117305;28;83332;-49
2023/07/31 07:34:56;;;;;;;38.47;10.32;;;24.90;64.10;;;;;;6077063;28;85140;-48
2023/07/31 07:37:57;;;;;;;27.08;9.45;;;24.80;64.10;;;;;;6107215;28;83092;-51
2023/07/31 07:40:57;;;;;;;13.30;6.40;;;24.80;64.40;;;;;;6110151;28;86302;-51
2023/07/31 07:43:58;;;;;;;13.77;5.53;;;24.70;64.40;;;;;;6111118;28;80927;-65
2023/07/31 07:46:58;;;;;;;16.63;4.75;;;24.60;64.50;;;;;;6101107;28;82081;-65
2023/07/31 07:49:59;;;;;;;9.73;4.25;;;24.40;64.80;;;;;;6110730;28;80829;-64
2023/07/31 07:52:59;;;;;;;15.68;3.47;;;24.40;65.00;;;;;;6117935;28;80385;-67
2023/07/31 07:56:00;;;;;;;10.57;3.58;;;24.30;65.00;;;;;;6101687;28;80695;-66
2023/07/31 07:59:00;;;;;;;6.80;3.90;;;24.30;65.30;;;;;;6111181;28;80720;-65
2023/07/31 08:02:01;;;;;;;8.27;3.75;;;24.30;65.30;;;;;;6103038;28;83443;-60
2023/07/31 08:05:01;;;;;;;6.85;3.28;;;24.30;65.00;;;;;;6115387;28;81417;-60
2023/07/31 08:08:02;;;;;;;8.48;3.85;;;24.40;65.00;;;;;;6095114;28;82594;-60
2023/07/31 08:11:02;;;;;;;4.70;3.05;;;24.30;64.50;;;;;;6120769;28;83766;-61
2023/07/31 08:14:03;;;;;;;5.50;2.97;;;24.30;64.60;;;;;;6123891;28;85148;-58
2023/07/31 08:17:04;;;;;;;7.80;3.55;;;24.20;64.50;;;;;;6137251;28;82530;-59
2023/07/31 08:20:04;;;;;;;6.68;2.92;;;24.20;64.90;;;;;;6131833;28;80612;-66
2023/07/31 08:23:05;;;;;;;6.10;3.22;;;23.90;64.80;;;;;;6128566;28;80410;-67
2023/07/31 08:26:05;;;;;;;5.15;2.60;;;23.70;65.40;;;;;;6137493;28;80559;-66
2023/07/31 08:29:06;;;;;;;7.35;3.45;;;23.70;65.90;;;;;;6113242;28;81305;-66
2023/07/31 08:32:06;;;;;;;5.13;2.53;;;23.70;66.00;;;;;;6113573;28;85710;-65
2023/07/31 08:35:07;;;;;;;4.65;3.03;;;23.70;65.60;;;;;;6109644;28;81368;-65
2023/07/31 08:38:07;;;;;;;8.02;3.50;;;23.90;65.80;;;;;;6127316;28;81073;-50
2023/07/31 08:41:08;;;;;;;5.43;2.80;;;23.70;65.30;;;;;;6113988;28;81064;-50
2023/07/31 08:44:08;;;;;;;5.53;3.33;;;23.70;65.70;;;;;;6117855;28;80993;-48
2023/07/31 08:47:09;;;;;;;7.05;2.50;;;23.90;65.50;;;;;;6122799;28;80442;-47
2023/07/31 08:50:09;;;;;;;5.70;2.45;;;24.10;65.20;;;;;;6105552;28;81745;-49
2023/07/31 08:53:10;;;;;;;5.22;3.50;;;24.10;64.40;;;;;;6106647;28;81201;-49
2023/07/31 08:56:11;;;;;;;3.58;2.53;;;24.20;64.20;;;;;;6123372;28;80323;-48
2023/07/31 08:59:11;;;;;;;10.90;2.88;;;24.20;64.20;;;;;;6114966;28;82718;-58
2023/07/31 09:02:12;;;;;;;7.22;3.20;;;24.30;64.00;;;;;;6128440;28;81758;-57
2023/07/31 09:05:12;;;;;;;5.35;3.00;;;24.40;63.80;;;;;;6115606;28;81687;-59
2023/07/31 09:08:13;;;;;;;6.10;2.65;;;24.50;63.50;;;;;;6114515;28;80599;-58
2023/07/31 09:11:13;;;;;;;6.25;2.92;;;24.30;63.20;;;;;;6114323;28;81747;-58
2023/07/31 09:14:14;;;;;;;4.10;2.47;;;24.10;63.90;;;;;;6129340;28;80281;-59
2023/07/31 09:17:14;;;;;;;8.68;3.38;;;23.90;63.90;;;;;;6118765;28;80834;-60
2023/07/31 09:20:15;;;;;;;14.20;3.80;;;23.90;64.10;;;;;;6110195;28;82971;-60
2023/07/31 09:23:16;;;;;;;13.77;3.08;;;24.10;63.80;;;;;;6118116;28;80646;-63
2023/07/31 09:26:16;;;;;;;5.43;2.58;;;24.10;63.60;;;;;;6110100;28;82461;-60
2023/07/31 09:29:17;;;;;;;8.40;2.88;;;24.00;63.30;;;;;;6121538;28;80475;-60
2023/07/31 09:32:18;;;;;;;7.00;3.13;;;24.20;63.20;;;;;;6112815;28;81898;-56
2023/07/31 09:35:19;;;;;;;7.70;2.30;;;24.40;63.10;;;;;;6107533;28;81240;-59
2023/07/31 09:38:19;;;;;;;6.10;2.25;;;24.40;63.10;;;;;;6133662;28;80840;-61
2023/07/31 09:41:21;;;;;;;5.75;2.92;;;24.50;62.90;;;;;;6110993;28;82624;-63
2023/07/31 09:44:22;;;;;;;3.35;2.60;;;24.60;62.80;;;;;;6112596;28;82031;-62
2023/07/31 09:47:25;;;;;;;4.82;2.50;;;24.70;62.70;;;;;;6113815;28;83919;-60
2023/07/31 09:50:26;;;;;;;5.07;2.90;;;24.70;62.00;;;;;;6125254;28;80682;-60
2023/07/31 09:53:26;;;;;;;4.25;2.25;;;24.70;61.70;;;;;;6117818;28;83488;-60
2023/07/31 09:56:27;;;;;;;6.65;3.42;;;24.70;62.20;;;;;;6120678;28;82344;-61
2023/07/31 09:59:27;;;;;;;7.15;3.00;;;24.70;62.20;;;;;;6118362;28;80833;-61
2023/07/31 10:02:28;;;;;;;4.45;2.58;;;24.80;61.90;;;;;;6105483;28;82547;-62
2023/07/31 10:05:28;;;;;;;9.90;2.92;;;24.90;61.90;;;;;;6117700;28;80244;-62
2023/07/31 10:08:29;;;;;;;5.75;2.85;;;24.90;61.60;;;;;;6117188;28;81924;-62
2023/07/31 10:11:30;;;;;;;6.85;2.75;;;25.00;61.50;;;;;;6118342;28;80546;-61
2023/07/31 10:14:30;;;;;;;8.43;2.55;;;25.00;60.90;;;;;;6108722;28;80605;-61
2023/07/31 10:17:31;;;;;;;4.07;2.25;;;25.10;60.30;;;;;;6123833;28;81617;-60
2023/07/31 10:20:32;;;;;;;5.72;2.90;;;25.10;60.70;;;;;;6124704;28;80671;-62
2023/07/31 10:23:32;;;;;;;5.50;2.60;;;25.10;60.00;;;;;;6129653;28;82424;-61
2023/07/31 10:26:33;;;;;;;6.13;2.45;;;25.10;58.50;;;;;;6116822;28;81436;-61
2023/07/31 10:29:34;;;;;;;5.80;2.80;;;25.00;57.20;;;;;;6113029;28;82070;-61
2023/07/31 10:32:34;;;;;;;3.35;2.10;;;25.10;58.60;;;;;;6122509;28;81119;-61
2023/07/31 10:35:35;;;;;;;9.40;2.67;;;25.10;58.30;;;;;;6122813;28;83020;-61
2023/07/31 10:38:35;;;;;;;7.95;2.40;;;25.10;58.10;;;;;;6129545;28;82997;-60
2023/07/31 10:41:36;;;;;;;6.82;2.47;;;25.20;57.30;;;;;;6130187;28;80382;-61
2023/07/31 10:44:36;;;;;;;6.13;2.40;;;25.20;57.50;;;;;;6104838;28;81268;-60
2023/07/31 10:47:37;;;;;;;3.38;1.77;;;25.30;57.40;;;;;;6141505;28;80828;-45
2023/07/31 10:50:37;;;;;;;3.78;1.95;;;25.30;57.50;;;;;;6121745;28;82308;-54
2023/07/31 10:53:38;;;;;;;4.07;2.38;;;25.30;57.30;;;;;;6130784;28;80818;-48
2023/07/31 10:56:39;;;;;;;6.18;2.10;;;25.30;56.90;;;;;;6122155;28;81518;-49
2023/07/31 10:59:40;;;;;;;5.97;2.80;;;25.30;57.00;;;;;;6130671;28;80772;-45
2023/07/31 11:02:40;;;;;;;7.20;3.10;;;25.40;55.50;;;;;;6127191;28;80701;-48
2023/07/31 11:05:41;;;;;;;7.60;2.33;;;25.40;56.10;;;;;;6120180;28;82391;-60
2023/07/31 11:08:41;;;;;;;5.40;2.42;;;25.50;56.00;;;;;;6135825;28;80641;-60
2023/07/31 11:11:42;;;;;;;3.95;2.50;;;25.60;56.50;;;;;;6132812;28;81840;-61
2023/07/31 11:14:42;;;;;;;7.47;2.10;;;25.50;56.50;;;;;;6124755;28;81877;-59
2023/07/31 11:17:43;;;;;;;6.15;2.45;;;25.60;56.30;;;;;;6115429;28;84015;-59
2023/07/31 11:20:43;;;;;;;6.30;2.85;;;25.60;55.70;;;;;;6135056;28;81184;-62
2023/07/31 11:23:44;;;;;;;5.82;2.92;;;25.60;55.80;;;;;;6121210;28;80552;-59
2023/07/31 11:26:44;;;;;;;5.97;2.42;;;25.60;56.30;;;;;;6122164;28;80641;-60
2023/07/31 11:29:45;;;;;;;8.38;2.75;;;25.70;55.70;;;;;;6114305;28;80523;-59
2023/07/31 11:32:45;;;;;;;3.70;2.17;;;25.70;55.50;;;;;;6106814;28;82036;-58
2023/07/31 11:35:46;;;;;;;4.65;2.42;;;25.80;55.80;;;;;;6110930;28;80232;-59
2023/07/31 11:38:46;;;;;;;3.58;2.00;;;25.80;55.20;;;;;;6121365;28;82621;-60
2023/07/31 11:41:47;;;;;;;3.75;2.00;;;25.80;54.90;;;;;;6116730;28;80689;-66
2023/07/31 11:44:48;;;;;;;7.50;2.25;;;25.90;54.60;;;;;;6106008;28;81727;-65
2023/07/31 11:47:48;;;;;;;4.50;2.35;;;25.80;54.20;;;;;;6107202;28;82677;-61
2023/07/31 11:50:49;;;;;;;4.43;2.22;;;25.90;55.10;;;;;;6108728;28;82569;-64
2023/07/31 11:53:50;;;;;;;4.40;1.88;;;25.90;54.70;;;;;;6108850;28;82700;-65
2023/07/31 11:56:50;;;;;;;5.43;1.80;;;25.90;54.70;;;;;;6110305;28;83021;-67
2023/07/31 11:59:51;;;;;;;4.35;1.80;;;25.90;54.30;;;;;;6106361;28;82102;-65
2023/07/31 12:02:51;;;;;;;3.30;2.08;;;26.00;54.40;;;;;;6116623;28;82979;-65
2023/07/31 12:05:52;;;;;;;4.93;2.20;;;26.00;53.60;;;;;;6128684;28;82647;-65
2023/07/31 12:08:52;;;;;;;5.90;1.80;;;26.00;53.20;;;;;;6119593;28;81606;-66
2023/07/31 12:11:53;;;;;;;7.95;1.90;;;26.10;53.40;;;;;;6124014;28;80494;-66
2023/07/31 12:14:54;;;;;;;5.63;2.28;;;26.10;52.90;;;;;;6108003;28;82334;-65
2023/07/31 12:17:55;;;;;;;7.55;1.92;;;26.10;52.70;;;;;;6123110;28;80609;-65
2023/07/31 12:20:55;;;;;;;2.50;1.75;;;26.10;52.20;;;;;;6118407;28;81488;-60
2023/07/31 12:23:56;;;;;;;4.18;2.00;;;26.10;52.30;;;;;;6123927;28;80891;-61
2023/07/31 12:26:56;;;;;;;3.33;2.03;;;26.10;52.60;;;;;;6131302;28;80372;-61
2023/07/31 12:29:57;;;;;;;3.38;2.13;;;26.20;53.00;;;;;;6105981;28;80966;-61
2023/07/31 12:32:57;;;;;;;2.80;1.88;;;26.20;52.90;;;;;;6125710;28;80682;-61
2023/07/31 12:35:58;;;;;;;3.40;2.38;;;26.10;52.80;;;;;;6111120;28;88101;-61
2023/07/31 12:38:58;;;;;;;2.92;1.90;;;26.10;52.40;;;;;;6120283;28;80408;-59
2023/07/31 12:41:59;;;;;;;4.20;2.35;;;26.10;52.00;;;;;;6114982;28;81265;-57
2023/07/31 12:44:59;;;;;;;5.05;2.25;;;26.10;52.50;;;;;;6130528;28;82346;-58
2023/07/31 12:48:00;;;;;;;4.38;2.42;;;26.10;52.40;;;;;;6128868;28;80431;-58
2023/07/31 12:51:00;;;;;;;6.43;2.05;;;26.10;52.40;;;;;;6132410;28;80662;-57
2023/07/31 12:54:01;;;;;;;3.80;1.95;;;26.10;52.20;;;;;;6129816;28;80962;-56
2023/07/31 12:57:01;;;;;;;3.92;2.00;;;26.10;52.10;;;;;;6116439;28;81496;-51
2023/07/31 13:00:02;;;;;;;5.68;2.08;;;26.00;51.90;;;;;;6129333;28;81417;-46
2023/07/31 13:03:02;;;;;;;5.13;2.17;;;25.90;52.30;;;;;;6119652;28;80550;-48
2023/07/31 13:06:03;;;;;;;3.58;1.92;;;26.00;52.30;;;;;;6127802;28;80987;-46
2023/07/31 13:09:04;;;;;;;8.68;2.92;;;25.90;52.60;;;;;;6137321;28;81146;-47
2023/07/31 13:12:04;;;;;;;5.88;2.45;;;25.90;52.50;;;;;;6132443;28;81810;-48
2023/07/31 13:15:05;;;;;;;3.83;2.20;;;26.00;52.10;;;;;;6142220;28;80415;-59
2023/07/31 13:18:05;;;;;;;4.10;2.08;;;26.00;51.20;;;;;;6120035;28;82647;-58
2023/07/31 13:21:06;;;;;;;5.63;2.08;;;26.10;51.70;;;;;;6129033;28;81010;-57
2023/07/31 13:24:06;;;;;;;3.67;2.15;;;26.10;51.60;;;;;;6119158;28;82960;-56
2023/07/31 13:27:07;;;;;;;2.50;2.17;;;26.10;51.20;;;;;;6138920;28;81529;-57
2023/07/31 13:30:07;;;;;;;6.82;2.20;;;26.10;51.90;;;;;;6116896;28;80922;-58
2023/07/31 13:33:08;;;;;;;4.05;2.10;;;26.10;51.00;;;;;;6113563;28;82662;-66
2023/07/31 13:36:08;;;;;;;3.72;2.38;;;26.10;51.50;;;;;;6116043;28;80121;-66
2023/07/31 13:39:09;;;;;;;4.43;2.13;;;26.20;50.90;;;;;;6116977;28;81846;-66
2023/07/31 13:42:11;;;;;;;2.85;1.65;;;26.20;51.60;;;;;;6138728;28;80828;-67
2023/07/31 13:45:12;;;;;;;6.72;2.20;;;26.20;51.50;;;;;;6119885;28;81784;-68
2023/07/31 13:48:12;;;;;;;3.50;2.20;;;26.20;51.80;;;;;;6135460;28;80134;-66
2023/07/31 13:51:13;;;;;;;6.43;2.22;;;26.10;51.60;;;;;;6124959;28;81212;-65
2023/07/31 13:54:15;;;;;;;5.32;2.63;;;26.20;51.30;;;;;;6098068;28;82677;-65
2023/07/31 13:57:16;;;;;;;3.88;2.00;;;26.20;50.90;;;;;;6131522;28;81488;-66
2023/07/31 14:00:17;;;;;;;4.90;2.00;;;26.20;51.60;;;;;;6121756;28;81978;-67
2023/07/31 14:03:18;;;;;;;7.30;2.47;;;26.20;51.50;;;;;;6122406;28;81337;-68
2023/07/31 14:06:18;;;;;;;5.50;2.08;;;26.20;51.10;;;;;;6105699;28;82042;-64
2023/07/31 14:09:19;;;;;;;6.15;1.85;;;26.20;51.80;;;;;;6123608;28;80324;-58
2023/07/31 14:12:19;;;;;;;5.47;1.90;;;26.20;51.00;;;;;;6121425;28;80759;-57
2023/07/31 14:15:20;;;;;;;3.47;2.10;;;26.20;51.60;;;;;;6119963;28;81901;-58
2023/07/31 14:18:20;;;;;;;5.47;2.42;;;26.10;50.60;;;;;;6134904;28;80385;-57
2023/07/31 14:21:21;;;;;;;8.90;2.75;;;26.00;50.50;;;;;;6114215;28;82907;-58
2023/07/31 14:24:21;;;;;;;4.03;2.08;;;26.00;49.50;;;;;;6120687;28;82012;-59
2023/07/31 14:27:22;;;;;;;6.32;2.47;;;26.10;49.60;;;;;;6119137;28;82764;-58
2023/07/31 14:30:23;;;;;;;5.72;2.47;;;26.10;49.40;;;;;;6118189;28;80391;-56
2023/07/31 14:33:23;;;;;;;5.38;2.50;;;26.10;49.40;;;;;;6132336;28;80488;-55
2023/07/31 14:36:24;;;;;;;6.43;2.65;;;26.10;49.70;;;;;;6134739;28;82071;-58
2023/07/31 14:39:24;;;;;;;6.10;2.53;;;26.10;49.10;;;;;;6129934;28;81484;-56
2023/07/31 14:42:25;;;;;;;6.38;2.65;;;26.10;49.50;;;;;;6122805;28;83119;-57
2023/07/31 14:45:26;;;;;;;4.07;2.15;;;26.20;49.60;;;;;;6138008;28;80855;-56
2023/07/31 14:48:27;;;;;;;5.65;2.60;;;26.20;49.80;;;;;;6121737;28;83209;-49
2023/07/31 14:51:27;;;;;;;4.70;1.90;;;26.20;50.10;;;;;;6131649;28;80866;-49
2023/07/31 14:54:28;;;;;;;4.38;1.90;;;26.20;49.80;;;;;;6128207;28;87692;-51
2023/07/31 14:57:28;;;;;;;3.90;2.05;;;26.10;48.90;;;;;;6122407;28;81029;-52
2023/07/31 15:00:29;;;;;;;2.95;2.17;;;26.10;49.00;;;;;;6131658;28;80261;-47
2023/07/31 15:03:30;;;;;;;3.05;1.88;;;26.10;48.60;;;;;;6122205;28;80659;-51
2023/07/31 15:06:30;;;;;;;2.50;1.63;;;26.10;48.50;;;;;;6127589;28;80759;-51
2023/07/31 15:09:31;;;;;;;3.72;1.60;;;26.00;48.70;;;;;;6106218;28;80638;-51
2023/07/31 15:12:31;;;;;;;4.75;1.90;;;26.10;49.30;;;;;;6111207;28;80610;-46
2023/07/31 15:15:32;;;;;;;3.67;2.00;;;26.10;49.60;;;;;;6113037;28;80612;-50
2023/07/31 15:18:32;;;;;;;4.45;1.88;;;26.10;49.70;;;;;;6103674;28;81219;-50
2023/07/31 15:21:33;;;;;;;6.57;2.17;;;26.10;48.80;;;;;;6107572;28;81885;-49
2023/07/31 15:24:33;;;;;;;2.95;1.73;;;26.10;49.30;;;;;;6103815;28;80649;-48
2023/07/31 15:27:34;;;;;;;4.05;1.98;;;26.10;49.20;;;;;;6124791;28;81354;-49
2023/07/31 15:30:34;;;;;;;6.97;1.88;;;26.10;49.90;;;;;;6104126;28;81605;-47
2023/07/31 15:33:35;;;;;;;6.78;2.30;;;26.10;49.60;;;;;;6112351;28;80720;-52
2023/07/31 15:36:35;;;;;;;3.53;2.00;;;26.00;49.60;;;;;;6104871;28;80828;-49